sensor_id;sensor_type;location;lat;lon;timestamp;P1;durP1;ratioP1;P2;durP2;ratioP2
57241;SDS011;43095;53.302;5.786;2023-03-01T00:01:16;17.80;;;10.68;;
57241;SDS011;43095;53.302;5.786;2023-03-01T00:03:44;16.20;;;10.80;;
57241;SDS011;43095;53.302;5.786;2023-03-01T00:06:12;18.10;;;11.15;;
57241;SDS011;43095;53.302;5.786;2023-03-01T00:08:40;13.60;;;8.75;;
57241;SDS011;43095;53.302;5.786;2023-03-01T00:13:41;16.67;;;11.35;;
57241;SDS011;43095;53.302;5.786;2023-03-01T00:16:11;38.28;;;12.85;;
57241;SDS011;43095;53.302;5.786;2023-03-01T00:18:39;20.67;;;12.43;;
57241;SDS011;43095;53.302;5.786;2023-03-01T00:21:07;20.25;;;13.65;;
57241;SDS011;43095;53.302;5.786;2023-03-01T00:23:35;17.85;;;11.65;;
57241;SDS011;43095;53.302;5.786;2023-03-01T00:26:06;18.55;;;12.25;;
57241;SDS011;43095;53.302;5.786;2023-03-01T00:28:35;21.15;;;13.05;;
57241;SDS011;43095;53.302;5.786;2023-03-01T00:31:06;26.52;;;15.40;;
57241;SDS011;43095;53.302;5.786;2023-03-01T00:33:34;24.55;;;14.77;;
57241;SDS011;43095;53.302;5.786;2023-03-01T00:36:02;21.88;;;14.00;;
57241;SDS011;43095;53.302;5.786;2023-03-01T00:38:30;21.48;;;13.10;;
57241;SDS011;43095;53.302;5.786;2023-03-01T00:41:08;23.10;;;13.18;;
57241;SDS011;43095;53.302;5.786;2023-03-01T00:43:36;28.50;;;15.20;;
57241;SDS011;43095;53.302;5.786;2023-03-01T00:46:14;29.98;;;16.35;;
57241;SDS011;43095;53.302;5.786;2023-03-01T00:48:42;23.45;;;13.52;;
57241;SDS011;43095;53.302;5.786;2023-03-01T00:51:12;20.23;;;12.95;;
57241;SDS011;43095;53.302;5.786;2023-03-01T00:53:41;23.92;;;13.70;;
57241;SDS011;43095;53.302;5.786;2023-03-01T00:56:09;17.50;;;10.68;;
57241;SDS011;43095;53.302;5.786;2023-03-01T00:58:37;20.85;;;13.40;;
57241;SDS011;43095;53.302;5.786;2023-03-01T01:01:22;18.08;;;11.15;;
57241;SDS011;43095;53.302;5.786;2023-03-01T01:03:51;22.90;;;13.18;;
57241;SDS011;43095;53.302;5.786;2023-03-01T01:06:21;17.20;;;11.25;;
57241;SDS011;43095;53.302;5.786;2023-03-01T01:08:49;20.50;;;12.15;;
57241;SDS011;43095;53.302;5.786;2023-03-01T01:11:17;18.80;;;11.93;;
57241;SDS011;43095;53.302;5.786;2023-03-01T01:13:45;19.65;;;12.20;;
57241;SDS011;43095;53.302;5.786;2023-03-01T01:16:14;27.60;;;15.75;;
57241;SDS011;43095;53.302;5.786;2023-03-01T01:18:42;28.67;;;14.68;;
57241;SDS011;43095;53.302;5.786;2023-03-01T01:21:11;21.77;;;12.18;;
57241;SDS011;43095;53.302;5.786;2023-03-01T01:23:39;19.77;;;10.80;;
57241;SDS011;43095;53.302;5.786;2023-03-01T01:26:07;28.73;;;14.18;;
57241;SDS011;43095;53.302;5.786;2023-03-01T01:28:36;18.83;;;11.45;;
57241;SDS011;43095;53.302;5.786;2023-03-01T01:31:04;18.67;;;10.40;;
57241;SDS011;43095;53.302;5.786;2023-03-01T01:33:33;18.25;;;9.95;;
57241;SDS011;43095;53.302;5.786;2023-03-01T01:36:00;18.83;;;11.77;;
57241;SDS011;43095;53.302;5.786;2023-03-01T01:38:28;21.23;;;11.80;;
57241;SDS011;43095;53.302;5.786;2023-03-01T01:40:56;22.88;;;12.20;;
57241;SDS011;43095;53.302;5.786;2023-03-01T01:43:25;22.00;;;12.13;;
57241;SDS011;43095;53.302;5.786;2023-03-01T01:46:03;21.23;;;12.23;;
57241;SDS011;43095;53.302;5.786;2023-03-01T01:48:34;21.05;;;11.68;;
57241;SDS011;43095;53.302;5.786;2023-03-01T01:51:09;22.65;;;12.85;;
57241;SDS011;43095;53.302;5.786;2023-03-01T01:53:38;18.10;;;11.27;;
57241;SDS011;43095;53.302;5.786;2023-03-01T01:56:07;23.25;;;12.57;;
57241;SDS011;43095;53.302;5.786;2023-03-01T01:58:36;21.70;;;12.60;;
57241;SDS011;43095;53.302;5.786;2023-03-01T02:01:04;22.27;;;13.30;;
57241;SDS011;43095;53.302;5.786;2023-03-01T02:03:33;19.70;;;11.43;;
57241;SDS011;43095;53.302;5.786;2023-03-01T02:06:12;22.88;;;12.98;;
57241;SDS011;43095;53.302;5.786;2023-03-01T02:08:40;21.13;;;12.07;;
57241;SDS011;43095;53.302;5.786;2023-03-01T02:11:10;25.67;;;13.70;;
57241;SDS011;43095;53.302;5.786;2023-03-01T02:13:38;24.10;;;13.80;;
57241;SDS011;43095;53.302;5.786;2023-03-01T02:16:08;22.85;;;12.45;;
57241;SDS011;43095;53.302;5.786;2023-03-01T02:18:37;23.75;;;13.32;;
57241;SDS011;43095;53.302;5.786;2023-03-01T02:21:25;22.20;;;13.43;;
57241;SDS011;43095;53.302;5.786;2023-03-01T02:23:58;21.08;;;12.60;;
57241;SDS011;43095;53.302;5.786;2023-03-01T02:26:34;20.98;;;12.32;;
57241;SDS011;43095;53.302;5.786;2023-03-01T02:29:03;36.78;;;11.98;;
57241;SDS011;43095;53.302;5.786;2023-03-01T02:31:32;109.80;;;16.17;;
57241;SDS011;43095;53.302;5.786;2023-03-01T02:34:14;44.35;;;11.32;;
57241;SDS011;43095;53.302;5.786;2023-03-01T02:36:50;98.40;;;13.75;;
57241;SDS011;43095;53.302;5.786;2023-03-01T02:39:22;43.10;;;13.13;;
57241;SDS011;43095;53.302;5.786;2023-03-01T02:41:51;23.05;;;11.30;;
57241;SDS011;43095;53.302;5.786;2023-03-01T02:44:20;29.10;;;11.90;;
57241;SDS011;43095;53.302;5.786;2023-03-01T02:46:51;25.73;;;13.70;;
57241;SDS011;43095;53.302;5.786;2023-03-01T02:49:26;29.73;;;13.00;;
57241;SDS011;43095;53.302;5.786;2023-03-01T02:51:59;93.38;;;14.80;;
57241;SDS011;43095;53.302;5.786;2023-03-01T02:57:16;26.23;;;9.82;;
57241;SDS011;43095;53.302;5.786;2023-03-01T02:59:44;21.55;;;9.23;;
57241;SDS011;43095;53.302;5.786;2023-03-01T03:02:20;22.55;;;9.77;;
57241;SDS011;43095;53.302;5.786;2023-03-01T03:05:29;96.32;;;12.93;;
57241;SDS011;43095;53.302;5.786;2023-03-01T03:07:59;77.30;;;11.10;;
57241;SDS011;43095;53.302;5.786;2023-03-01T03:10:30;164.82;;;15.82;;
57241;SDS011;43095;53.302;5.786;2023-03-01T03:13:16;23.70;;;10.75;;
57241;SDS011;43095;53.302;5.786;2023-03-01T03:15:45;22.38;;;9.30;;
57241;SDS011;43095;53.302;5.786;2023-03-01T03:18:14;33.72;;;10.52;;
57241;SDS011;43095;53.302;5.786;2023-03-01T03:20:42;16.55;;;9.73;;
57241;SDS011;43095;53.302;5.786;2023-03-01T03:23:10;111.20;;;15.23;;
57241;SDS011;43095;53.302;5.786;2023-03-01T03:25:38;23.30;;;9.52;;
57241;SDS011;43095;53.302;5.786;2023-03-01T03:28:06;36.80;;;10.25;;
57241;SDS011;43095;53.302;5.786;2023-03-01T03:30:38;72.68;;;14.15;;
57241;SDS011;43095;53.302;5.786;2023-03-01T03:33:06;34.40;;;10.00;;
57241;SDS011;43095;53.302;5.786;2023-03-01T03:35:39;15.52;;;9.48;;
57241;SDS011;43095;53.302;5.786;2023-03-01T03:38:08;25.55;;;10.13;;
57241;SDS011;43095;53.302;5.786;2023-03-01T03:40:43;22.02;;;9.68;;
57241;SDS011;43095;53.302;5.786;2023-03-01T03:43:15;15.95;;;9.27;;
57241;SDS011;43095;53.302;5.786;2023-03-01T03:45:43;36.05;;;10.00;;
57241;SDS011;43095;53.302;5.786;2023-03-01T03:48:11;25.50;;;9.65;;
57241;SDS011;43095;53.302;5.786;2023-03-01T03:50:39;61.75;;;11.02;;
57241;SDS011;43095;53.302;5.786;2023-03-01T03:53:09;206.45;;;20.50;;
57241;SDS011;43095;53.302;5.786;2023-03-01T03:55:37;60.17;;;11.90;;
57241;SDS011;43095;53.302;5.786;2023-03-01T03:58:07;165.20;;;17.75;;
57241;SDS011;43095;53.302;5.786;2023-03-01T04:00:39;200.05;;;18.83;;
57241;SDS011;43095;53.302;5.786;2023-03-01T04:03:07;145.07;;;16.42;;
57241;SDS011;43095;53.302;5.786;2023-03-01T04:05:35;147.65;;;14.90;;
57241;SDS011;43095;53.302;5.786;2023-03-01T04:08:03;75.75;;;12.32;;
57241;SDS011;43095;53.302;5.786;2023-03-01T04:10:35;52.00;;;10.50;;
57241;SDS011;43095;53.302;5.786;2023-03-01T04:13:08;112.35;;;11.60;;
57241;SDS011;43095;53.302;5.786;2023-03-01T04:15:36;35.60;;;8.82;;
57241;SDS011;43095;53.302;5.786;2023-03-01T04:18:04;90.35;;;11.35;;
57241;SDS011;43095;53.302;5.786;2023-03-01T04:20:33;54.38;;;8.63;;
57241;SDS011;43095;53.302;5.786;2023-03-01T04:25:41;18.83;;;8.45;;
57241;SDS011;43095;53.302;5.786;2023-03-01T04:28:09;117.78;;;13.05;;
57241;SDS011;43095;53.302;5.786;2023-03-01T04:30:37;47.53;;;9.70;;
57241;SDS011;43095;53.302;5.786;2023-03-01T04:33:05;14.68;;;8.52;;
57241;SDS011;43095;53.302;5.786;2023-03-01T04:35:36;16.25;;;8.45;;
57241;SDS011;43095;53.302;5.786;2023-03-01T04:38:04;52.83;;;11.07;;
57241;SDS011;43095;53.302;5.786;2023-03-01T04:40:32;29.60;;;9.82;;
57241;SDS011;43095;53.302;5.786;2023-03-01T04:43:00;50.75;;;10.30;;
57241;SDS011;43095;53.302;5.786;2023-03-01T04:45:28;17.77;;;8.73;;
57241;SDS011;43095;53.302;5.786;2023-03-01T04:47:56;31.10;;;10.40;;
57241;SDS011;43095;53.302;5.786;2023-03-01T04:50:24;15.35;;;8.25;;
57241;SDS011;43095;53.302;5.786;2023-03-01T04:52:52;36.47;;;10.20;;
57241;SDS011;43095;53.302;5.786;2023-03-01T04:55:20;21.02;;;9.40;;
57241;SDS011;43095;53.302;5.786;2023-03-01T04:57:47;56.08;;;13.27;;
57241;SDS011;43095;53.302;5.786;2023-03-01T05:00:15;26.20;;;9.95;;
57241;SDS011;43095;53.302;5.786;2023-03-01T05:02:53;18.98;;;9.05;;
57241;SDS011;43095;53.302;5.786;2023-03-01T05:05:22;16.85;;;8.98;;
57241;SDS011;43095;53.302;5.786;2023-03-01T05:07:53;30.17;;;10.80;;
57241;SDS011;43095;53.302;5.786;2023-03-01T05:10:20;140.05;;;15.48;;
57241;SDS011;43095;53.302;5.786;2023-03-01T05:12:48;24.98;;;12.82;;
57241;SDS011;43095;53.302;5.786;2023-03-01T05:15:15;128.68;;;16.05;;
57241;SDS011;43095;53.302;5.786;2023-03-01T05:17:43;36.75;;;10.65;;
57241;SDS011;43095;53.302;5.786;2023-03-01T05:20:11;19.33;;;10.70;;
57241;SDS011;43095;53.302;5.786;2023-03-01T05:22:38;38.97;;;12.38;;
57241;SDS011;43095;53.302;5.786;2023-03-01T05:25:06;106.10;;;15.10;;
57241;SDS011;43095;53.302;5.786;2023-03-01T05:27:34;61.85;;;11.90;;
57241;SDS011;43095;53.302;5.786;2023-03-01T05:30:02;136.00;;;19.40;;
57241;SDS011;43095;53.302;5.786;2023-03-01T05:32:40;129.02;;;18.67;;
57241;SDS011;43095;53.302;5.786;2023-03-01T05:35:10;31.23;;;12.10;;
57241;SDS011;43095;53.302;5.786;2023-03-01T05:37:46;28.50;;;12.18;;
57241;SDS011;43095;53.302;5.786;2023-03-01T05:40:18;27.13;;;11.50;;
57241;SDS011;43095;53.302;5.786;2023-03-01T05:42:47;21.97;;;11.20;;
57241;SDS011;43095;53.302;5.786;2023-03-01T05:45:16;28.75;;;12.07;;
57241;SDS011;43095;53.302;5.786;2023-03-01T05:47:44;63.88;;;18.25;;
57241;SDS011;43095;53.302;5.786;2023-03-01T05:52:46;27.58;;;15.10;;
57241;SDS011;43095;53.302;5.786;2023-03-01T05:55:19;70.20;;;19.60;;
57241;SDS011;43095;53.302;5.786;2023-03-01T05:57:47;36.45;;;15.82;;
57241;SDS011;43095;53.302;5.786;2023-03-01T06:00:15;38.10;;;15.63;;
57241;SDS011;43095;53.302;5.786;2023-03-01T06:02:43;46.58;;;17.02;;
57241;SDS011;43095;53.302;5.786;2023-03-01T06:05:12;54.67;;;20.25;;
57241;SDS011;43095;53.302;5.786;2023-03-01T06:07:40;36.95;;;16.83;;
57241;SDS011;43095;53.302;5.786;2023-03-01T06:10:08;30.15;;;16.75;;
57241;SDS011;43095;53.302;5.786;2023-03-01T06:12:37;25.95;;;16.15;;
57241;SDS011;43095;53.302;5.786;2023-03-01T06:15:05;28.95;;;16.77;;
57241;SDS011;43095;53.302;5.786;2023-03-01T06:17:34;32.03;;;16.70;;
57241;SDS011;43095;53.302;5.786;2023-03-01T06:20:05;35.80;;;20.08;;
57241;SDS011;43095;53.302;5.786;2023-03-01T06:22:33;44.17;;;25.95;;
57241;SDS011;43095;53.302;5.786;2023-03-01T06:25:01;43.42;;;24.83;;
57241;SDS011;43095;53.302;5.786;2023-03-01T06:27:29;40.47;;;23.85;;
57241;SDS011;43095;53.302;5.786;2023-03-01T06:29:56;29.25;;;18.00;;
57241;SDS011;43095;53.302;5.786;2023-03-01T06:32:27;24.65;;;16.70;;
57241;SDS011;43095;53.302;5.786;2023-03-01T06:34:54;24.02;;;14.38;;
57241;SDS011;43095;53.302;5.786;2023-03-01T06:37:22;18.67;;;12.55;;
57241;SDS011;43095;53.302;5.786;2023-03-01T06:39:50;15.93;;;10.98;;
57241;SDS011;43095;53.302;5.786;2023-03-01T06:42:17;17.73;;;11.65;;
57241;SDS011;43095;53.302;5.786;2023-03-01T06:44:45;14.88;;;10.77;;
57241;SDS011;43095;53.302;5.786;2023-03-01T06:47:13;17.13;;;11.90;;
57241;SDS011;43095;53.302;5.786;2023-03-01T06:49:41;16.50;;;11.90;;
57241;SDS011;43095;53.302;5.786;2023-03-01T06:52:08;17.95;;;11.52;;
57241;SDS011;43095;53.302;5.786;2023-03-01T06:54:36;16.80;;;11.73;;
57241;SDS011;43095;53.302;5.786;2023-03-01T06:57:03;18.50;;;11.73;;
57241;SDS011;43095;53.302;5.786;2023-03-01T06:59:31;16.85;;;11.55;;
57241;SDS011;43095;53.302;5.786;2023-03-01T07:01:59;16.60;;;11.60;;
57241;SDS011;43095;53.302;5.786;2023-03-01T07:04:27;14.57;;;10.23;;
57241;SDS011;43095;53.302;5.786;2023-03-01T07:06:57;13.73;;;10.10;;
57241;SDS011;43095;53.302;5.786;2023-03-01T07:09:25;17.58;;;12.23;;
57241;SDS011;43095;53.302;5.786;2023-03-01T07:11:52;15.80;;;10.88;;
57241;SDS011;43095;53.302;5.786;2023-03-01T07:14:20;23.55;;;14.52;;
57241;SDS011;43095;53.302;5.786;2023-03-01T07:16:48;18.48;;;12.50;;
57241;SDS011;43095;53.302;5.786;2023-03-01T07:19:15;20.38;;;13.18;;
57241;SDS011;43095;53.302;5.786;2023-03-01T07:21:43;19.15;;;12.63;;
57241;SDS011;43095;53.302;5.786;2023-03-01T07:24:11;24.60;;;15.27;;
57241;SDS011;43095;53.302;5.786;2023-03-01T07:26:38;21.42;;;13.55;;
57241;SDS011;43095;53.302;5.786;2023-03-01T07:29:07;29.10;;;15.43;;
57241;SDS011;43095;53.302;5.786;2023-03-01T07:31:34;30.52;;;15.30;;
57241;SDS011;43095;53.302;5.786;2023-03-01T07:34:03;24.23;;;14.60;;
57241;SDS011;43095;53.302;5.786;2023-03-01T07:36:31;30.40;;;16.10;;
57241;SDS011;43095;53.302;5.786;2023-03-01T07:38:58;20.85;;;13.63;;
57241;SDS011;43095;53.302;5.786;2023-03-01T07:41:29;20.40;;;13.18;;
57241;SDS011;43095;53.302;5.786;2023-03-01T07:43:56;26.98;;;15.10;;
57241;SDS011;43095;53.302;5.786;2023-03-01T07:46:24;23.92;;;14.77;;
57241;SDS011;43095;53.302;5.786;2023-03-01T07:48:51;22.27;;;14.52;;
57241;SDS011;43095;53.302;5.786;2023-03-01T07:51:19;21.77;;;14.18;;
57241;SDS011;43095;53.302;5.786;2023-03-01T07:53:47;24.05;;;14.00;;
57241;SDS011;43095;53.302;5.786;2023-03-01T07:56:15;26.52;;;15.10;;
57241;SDS011;43095;53.302;5.786;2023-03-01T07:58:44;23.48;;;14.32;;
57241;SDS011;43095;53.302;5.786;2023-03-01T08:01:16;33.95;;;17.27;;
57241;SDS011;43095;53.302;5.786;2023-03-01T08:03:44;26.27;;;14.40;;
57241;SDS011;43095;53.302;5.786;2023-03-01T08:06:12;23.88;;;14.82;;
57241;SDS011;43095;53.302;5.786;2023-03-01T08:08:40;30.25;;;15.07;;
57241;SDS011;43095;53.302;5.786;2023-03-01T08:11:09;24.30;;;14.77;;
57241;SDS011;43095;53.302;5.786;2023-03-01T08:13:37;23.48;;;15.68;;
57241;SDS011;43095;53.302;5.786;2023-03-01T08:16:10;29.55;;;17.30;;
57241;SDS011;43095;53.302;5.786;2023-03-01T08:18:38;29.15;;;17.27;;
57241;SDS011;43095;53.302;5.786;2023-03-01T08:21:06;37.45;;;20.27;;
57241;SDS011;43095;53.302;5.786;2023-03-01T08:23:34;32.00;;;19.85;;
57241;SDS011;43095;53.302;5.786;2023-03-01T08:26:03;29.45;;;17.42;;
57241;SDS011;43095;53.302;5.786;2023-03-01T08:28:30;33.25;;;19.20;;
57241;SDS011;43095;53.302;5.786;2023-03-01T08:30:58;33.90;;;20.55;;
57241;SDS011;43095;53.302;5.786;2023-03-01T08:33:26;36.28;;;20.35;;
57241;SDS011;43095;53.302;5.786;2023-03-01T08:36:01;34.92;;;20.30;;
57241;SDS011;43095;53.302;5.786;2023-03-01T08:38:29;33.78;;;20.58;;
57241;SDS011;43095;53.302;5.786;2023-03-01T08:40:59;35.65;;;19.73;;
57241;SDS011;43095;53.302;5.786;2023-03-01T08:43:26;32.05;;;20.25;;
57241;SDS011;43095;53.302;5.786;2023-03-01T08:45:54;31.65;;;18.80;;
57241;SDS011;43095;53.302;5.786;2023-03-01T08:48:22;29.55;;;18.85;;
57241;SDS011;43095;53.302;5.786;2023-03-01T08:50:49;43.67;;;25.65;;
57241;SDS011;43095;53.302;5.786;2023-03-01T08:53:17;45.88;;;25.60;;
57241;SDS011;43095;53.302;5.786;2023-03-01T08:55:45;46.78;;;27.65;;
57241;SDS011;43095;53.302;5.786;2023-03-01T08:58:14;46.60;;;26.50;;
57241;SDS011;43095;53.302;5.786;2023-03-01T09:00:42;51.10;;;27.42;;
57241;SDS011;43095;53.302;5.786;2023-03-01T09:03:09;51.97;;;29.00;;
57241;SDS011;43095;53.302;5.786;2023-03-01T09:05:37;49.67;;;29.00;;
57241;SDS011;43095;53.302;5.786;2023-03-01T09:08:05;46.30;;;27.38;;
57241;SDS011;43095;53.302;5.786;2023-03-01T09:10:37;50.03;;;28.00;;
57241;SDS011;43095;53.302;5.786;2023-03-01T09:13:04;44.45;;;27.08;;
57241;SDS011;43095;53.302;5.786;2023-03-01T09:15:32;47.80;;;28.65;;
57241;SDS011;43095;53.302;5.786;2023-03-01T09:18:00;45.05;;;27.23;;
57241;SDS011;43095;53.302;5.786;2023-03-01T09:20:28;47.92;;;27.65;;
57241;SDS011;43095;53.302;5.786;2023-03-01T09:22:55;50.53;;;28.15;;
57241;SDS011;43095;53.302;5.786;2023-03-01T09:25:23;44.15;;;27.42;;
57241;SDS011;43095;53.302;5.786;2023-03-01T09:27:51;46.13;;;29.70;;
57241;SDS011;43095;53.302;5.786;2023-03-01T09:30:19;50.72;;;29.10;;
57241;SDS011;43095;53.302;5.786;2023-03-01T09:32:47;44.83;;;27.90;;
57241;SDS011;43095;53.302;5.786;2023-03-01T09:35:15;48.25;;;27.40;;
57241;SDS011;43095;53.302;5.786;2023-03-01T09:37:42;44.00;;;26.80;;
57241;SDS011;43095;53.302;5.786;2023-03-01T09:40:12;45.55;;;26.90;;
57241;SDS011;43095;53.302;5.786;2023-03-01T09:43:26;37.30;;;26.02;;
57241;SDS011;43095;53.302;5.786;2023-03-01T09:45:33;39.65;;;26.95;;
57241;SDS011;43095;53.302;5.786;2023-03-01T09:48:02;41.35;;;28.13;;
57241;SDS011;43095;53.302;5.786;2023-03-01T09:50:33;41.55;;;28.42;;
57241;SDS011;43095;53.302;5.786;2023-03-01T09:53:04;34.72;;;26.38;;
57241;SDS011;43095;53.302;5.786;2023-03-01T09:55:34;35.55;;;25.42;;
57241;SDS011;43095;53.302;5.786;2023-03-01T09:58:29;37.97;;;26.92;;
57241;SDS011;43095;53.302;5.786;2023-03-01T10:00:59;37.45;;;26.10;;
57241;SDS011;43095;53.302;5.786;2023-03-01T10:03:36;34.83;;;24.17;;
57241;SDS011;43095;53.302;5.786;2023-03-01T10:08:35;37.58;;;23.55;;
57241;SDS011;43095;53.302;5.786;2023-03-01T10:11:17;31.95;;;23.15;;
57241;SDS011;43095;53.302;5.786;2023-03-01T10:13:56;30.58;;;20.73;;
57241;SDS011;43095;53.302;5.786;2023-03-01T10:17:10;28.83;;;21.42;;
57241;SDS011;43095;53.302;5.786;2023-03-01T10:19:20;28.23;;;20.15;;
57241;SDS011;43095;53.302;5.786;2023-03-01T10:24:17;25.70;;;18.98;;
57241;SDS011;43095;53.302;5.786;2023-03-01T10:29:15;23.63;;;18.70;;
57241;SDS011;43095;53.302;5.786;2023-03-01T10:31:44;22.98;;;16.55;;
57241;SDS011;43095;53.302;5.786;2023-03-01T10:34:14;21.73;;;16.10;;
57241;SDS011;43095;53.302;5.786;2023-03-01T10:36:43;21.52;;;15.77;;
57241;SDS011;43095;53.302;5.786;2023-03-01T10:39:14;20.98;;;14.50;;
57241;SDS011;43095;53.302;5.786;2023-03-01T10:41:52;20.00;;;14.68;;
57241;SDS011;43095;53.302;5.786;2023-03-01T10:47:04;15.93;;;12.85;;
57241;SDS011;43095;53.302;5.786;2023-03-01T10:49:31;19.02;;;13.02;;
57241;SDS011;43095;53.302;5.786;2023-03-01T10:51:59;18.67;;;12.25;;
57241;SDS011;43095;53.302;5.786;2023-03-01T10:54:38;15.75;;;11.82;;
57241;SDS011;43095;53.302;5.786;2023-03-01T10:57:10;14.25;;;11.10;;
57241;SDS011;43095;53.302;5.786;2023-03-01T11:00:00;15.85;;;11.85;;
57241;SDS011;43095;53.302;5.786;2023-03-01T11:02:28;16.45;;;10.98;;
57241;SDS011;43095;53.302;5.786;2023-03-01T11:07:24;12.40;;;9.93;;
57241;SDS011;43095;53.302;5.786;2023-03-01T11:09:52;13.55;;;10.65;;
57241;SDS011;43095;53.302;5.786;2023-03-01T11:12:20;13.15;;;10.55;;
57241;SDS011;43095;53.302;5.786;2023-03-01T11:14:49;12.95;;;10.48;;
57241;SDS011;43095;53.302;5.786;2023-03-01T11:20:02;15.65;;;10.95;;
57241;SDS011;43095;53.302;5.786;2023-03-01T11:22:30;13.13;;;9.70;;
57241;SDS011;43095;53.302;5.786;2023-03-01T11:25:00;10.50;;;9.25;;
57241;SDS011;43095;53.302;5.786;2023-03-01T11:27:43;15.65;;;9.90;;
57241;SDS011;43095;53.302;5.786;2023-03-01T11:30:23;12.60;;;9.73;;
57241;SDS011;43095;53.302;5.786;2023-03-01T11:35:41;12.40;;;9.75;;
57241;SDS011;43095;53.302;5.786;2023-03-01T11:38:18;11.73;;;9.70;;
57241;SDS011;43095;53.302;5.786;2023-03-01T11:51:38;12.30;;;8.35;;
57241;SDS011;43095;53.302;5.786;2023-03-01T11:56:47;9.07;;;7.57;;
57241;SDS011;43095;53.302;5.786;2023-03-01T12:04:18;11.38;;;7.95;;
57241;SDS011;43095;53.302;5.786;2023-03-01T12:06:52;12.25;;;7.95;;
57241;SDS011;43095;53.302;5.786;2023-03-01T12:14:30;12.57;;;9.40;;
57241;SDS011;43095;53.302;5.786;2023-03-01T12:19:37;14.65;;;10.10;;
57241;SDS011;43095;53.302;5.786;2023-03-01T12:22:11;13.50;;;10.60;;
57241;SDS011;43095;53.302;5.786;2023-03-01T12:24:46;13.63;;;10.50;;
57241;SDS011;43095;53.302;5.786;2023-03-01T12:27:29;12.48;;;10.32;;
57241;SDS011;43095;53.302;5.786;2023-03-01T12:35:39;14.98;;;12.32;;
57241;SDS011;43095;53.302;5.786;2023-03-01T12:40:46;15.88;;;11.90;;
57241;SDS011;43095;53.302;5.786;2023-03-01T12:43:27;13.95;;;11.52;;
57241;SDS011;43095;53.302;5.786;2023-03-01T12:48:45;15.60;;;11.68;;
57241;SDS011;43095;53.302;5.786;2023-03-01T12:51:15;15.43;;;12.00;;
57241;SDS011;43095;53.302;5.786;2023-03-01T12:53:47;15.63;;;12.15;;
57241;SDS011;43095;53.302;5.786;2023-03-01T12:56:17;17.52;;;13.52;;
57241;SDS011;43095;53.302;5.786;2023-03-01T13:17:51;14.23;;;10.85;;
57241;SDS011;43095;53.302;5.786;2023-03-01T13:21:05;16.50;;;11.57;;
57241;SDS011;43095;53.302;5.786;2023-03-01T13:23:24;15.85;;;12.13;;
57241;SDS011;43095;53.302;5.786;2023-03-01T13:31:03;14.75;;;12.43;;
57241;SDS011;43095;53.302;5.786;2023-03-01T13:36:03;14.38;;;11.65;;
57241;SDS011;43095;53.302;5.786;2023-03-01T13:44:26;15.32;;;11.35;;
57241;SDS011;43095;53.302;5.786;2023-03-01T13:46:57;13.98;;;10.90;;
57241;SDS011;43095;53.302;5.786;2023-03-01T13:49:31;14.82;;;11.35;;
57241;SDS011;43095;53.302;5.786;2023-03-01T13:54:48;13.93;;;10.57;;
57241;SDS011;43095;53.302;5.786;2023-03-01T13:57:19;14.70;;;10.60;;
57241;SDS011;43095;53.302;5.786;2023-03-01T13:59:48;13.70;;;10.05;;
57241;SDS011;43095;53.302;5.786;2023-03-01T14:02:16;13.05;;;9.88;;
57241;SDS011;43095;53.302;5.786;2023-03-01T14:04:44;12.25;;;10.13;;
57241;SDS011;43095;53.302;5.786;2023-03-01T14:07:23;14.90;;;10.57;;
57241;SDS011;43095;53.302;5.786;2023-03-01T14:09:52;14.32;;;10.98;;
57241;SDS011;43095;53.302;5.786;2023-03-01T14:14:51;13.68;;;10.90;;
57241;SDS011;43095;53.302;5.786;2023-03-01T14:19:54;13.52;;;10.82;;
57241;SDS011;43095;53.302;5.786;2023-03-01T14:22:23;12.10;;;9.30;;
57241;SDS011;43095;53.302;5.786;2023-03-01T14:24:56;14.23;;;10.30;;
57241;SDS011;43095;53.302;5.786;2023-03-01T14:27:28;11.40;;;9.15;;
57241;SDS011;43095;53.302;5.786;2023-03-01T14:29:58;12.93;;;9.77;;
57241;SDS011;43095;53.302;5.786;2023-03-01T14:34:54;15.32;;;11.15;;
57241;SDS011;43095;53.302;5.786;2023-03-01T14:37:34;13.75;;;11.02;;
57241;SDS011;43095;53.302;5.786;2023-03-01T14:40:03;15.27;;;11.20;;
57241;SDS011;43095;53.302;5.786;2023-03-01T14:42:34;15.27;;;11.18;;
57241;SDS011;43095;53.302;5.786;2023-03-01T14:45:03;12.65;;;10.50;;
57241;SDS011;43095;53.302;5.786;2023-03-01T14:47:32;15.82;;;11.50;;
57241;SDS011;43095;53.302;5.786;2023-03-01T14:50:01;12.82;;;10.43;;
57241;SDS011;43095;53.302;5.786;2023-03-01T14:52:36;13.45;;;10.50;;
57241;SDS011;43095;53.302;5.786;2023-03-01T14:55:06;14.70;;;10.77;;
57241;SDS011;43095;53.302;5.786;2023-03-01T14:57:34;13.98;;;10.63;;
57241;SDS011;43095;53.302;5.786;2023-03-01T15:00:03;11.65;;;10.38;;
57241;SDS011;43095;53.302;5.786;2023-03-01T15:02:31;13.23;;;10.68;;
57241;SDS011;43095;53.302;5.786;2023-03-01T15:05:01;13.38;;;10.70;;
57241;SDS011;43095;53.302;5.786;2023-03-01T15:07:35;15.70;;;11.32;;
57241;SDS011;43095;53.302;5.786;2023-03-01T15:10:05;14.13;;;11.27;;
57241;SDS011;43095;53.302;5.786;2023-03-01T15:12:38;17.17;;;11.90;;
57241;SDS011;43095;53.302;5.786;2023-03-01T15:15:19;14.27;;;12.00;;
57241;SDS011;43095;53.302;5.786;2023-03-01T15:17:52;16.88;;;11.90;;
57241;SDS011;43095;53.302;5.786;2023-03-01T15:20:22;17.33;;;12.85;;
57241;SDS011;43095;53.302;5.786;2023-03-01T15:22:55;15.55;;;11.90;;
57241;SDS011;43095;53.302;5.786;2023-03-01T15:25:24;15.75;;;12.20;;
57241;SDS011;43095;53.302;5.786;2023-03-01T15:27:56;16.67;;;11.95;;
57241;SDS011;43095;53.302;5.786;2023-03-01T15:30:29;17.42;;;13.45;;
57241;SDS011;43095;53.302;5.786;2023-03-01T15:35:48;17.55;;;12.25;;
57241;SDS011;43095;53.302;5.786;2023-03-01T15:38:29;15.90;;;11.68;;
57241;SDS011;43095;53.302;5.786;2023-03-01T15:40:58;16.52;;;11.40;;
57241;SDS011;43095;53.302;5.786;2023-03-01T15:43:36;15.25;;;10.13;;
57241;SDS011;43095;53.302;5.786;2023-03-01T15:46:04;17.50;;;10.43;;
57241;SDS011;43095;53.302;5.786;2023-03-01T15:48:32;16.40;;;10.70;;
57241;SDS011;43095;53.302;5.786;2023-03-01T15:51:00;18.80;;;10.50;;
57241;SDS011;43095;53.302;5.786;2023-03-01T15:53:28;17.65;;;11.13;;
57241;SDS011;43095;53.302;5.786;2023-03-01T15:55:55;18.08;;;11.52;;
57241;SDS011;43095;53.302;5.786;2023-03-01T15:58:23;20.95;;;11.93;;
57241;SDS011;43095;53.302;5.786;2023-03-01T16:00:51;18.10;;;11.68;;
57241;SDS011;43095;53.302;5.786;2023-03-01T16:03:27;22.52;;;12.90;;
57241;SDS011;43095;53.302;5.786;2023-03-01T16:05:55;21.95;;;13.43;;
57241;SDS011;43095;53.302;5.786;2023-03-01T16:08:23;22.67;;;14.85;;
57241;SDS011;43095;53.302;5.786;2023-03-01T16:10:51;23.33;;;16.08;;
57241;SDS011;43095;53.302;5.786;2023-03-01T16:13:20;26.15;;;16.30;;
57241;SDS011;43095;53.302;5.786;2023-03-01T16:15:48;31.05;;;16.33;;
57241;SDS011;43095;53.302;5.786;2023-03-01T16:18:16;24.75;;;17.63;;
57241;SDS011;43095;53.302;5.786;2023-03-01T16:20:43;27.52;;;18.05;;
57241;SDS011;43095;53.302;5.786;2023-03-01T16:23:11;25.92;;;17.50;;
57241;SDS011;43095;53.302;5.786;2023-03-01T16:25:39;27.88;;;18.33;;
57241;SDS011;43095;53.302;5.786;2023-03-01T16:28:06;32.75;;;18.92;;
57241;SDS011;43095;53.302;5.786;2023-03-01T16:30:37;32.67;;;18.15;;
57241;SDS011;43095;53.302;5.786;2023-03-01T16:33:58;27.38;;;17.42;;